sensor_id;sensor_type;location;lat;lon;timestamp;pressure;altitude;pressure_sealevel;temperature;humidity
6829;BME280;17930;48.592;8.868;2023-04-29T00:02:17;96468.75;;;11.01;100.00
6829;BME280;17930;48.592;8.868;2023-04-29T00:04:44;96474.94;;;10.87;100.00
6829;BME280;17930;48.592;8.868;2023-04-29T00:07:12;96469.00;;;11.05;100.00
6829;BME280;17930;48.592;8.868;2023-04-29T00:09:40;96469.47;;;11.07;100.00
6829;BME280;17930;48.592;8.868;2023-04-29T00:12:06;96463.06;;;10.99;100.00
6829;BME280;17930;48.592;8.868;2023-04-29T00:14:34;96456.38;;;11.12;100.00
6829;BME280;17930;48.592;8.868;2023-04-29T00:17:00;96457.72;;;10.86;100.00
6829;BME280;17930;48.592;8.868;2023-04-29T00:19:27;96458.78;;;10.67;100.00
6829;BME280;17930;48.592;8.868;2023-04-29T00:21:54;96453.88;;;10.60;100.00
6829;BME280;17930;48.592;8.868;2023-04-29T00:24:22;96462.25;;;10.57;100.00
6829;BME280;17930;48.592;8.868;2023-04-29T00:26:49;96459.66;;;10.57;100.00
6829;BME280;17930;48.592;8.868;2023-04-29T00:29:16;96460.81;;;10.46;100.00
6829;BME280;17930;48.592;8.868;2023-04-29T00:31:43;96465.38;;;10.36;100.00
6829;BME280;17930;48.592;8.868;2023-04-29T00:34:09;96462.09;;;10.25;100.00
6829;BME280;17930;48.592;8.868;2023-04-29T00:36:36;96458.59;;;10.12;100.00
6829;BME280;17930;48.592;8.868;2023-04-29T00:39:03;96458.97;;;10.23;100.00
6829;BME280;17930;48.592;8.868;2023-04-29T00:41:31;96459.97;;;10.27;100.00
6829;BME280;17930;48.592;8.868;2023-04-29T00:43:58;96451.13;;;10.28;100.00
6829;BME280;17930;48.592;8.868;2023-04-29T00:46:24;96462.53;;;10.32;100.00
6829;BME280;17930;48.592;8.868;2023-04-29T00:48:51;96464.88;;;10.34;100.00
6829;BME280;17930;48.592;8.868;2023-04-29T00:51:18;96475.63;;;10.27;100.00
6829;BME280;17930;48.592;8.868;2023-04-29T00:53:45;96467.41;;;10.16;100.00
6829;BME280;17930;48.592;8.868;2023-04-29T00:56:12;96466.31;;;10.22;100.00
6829;BME280;17930;48.592;8.868;2023-04-29T00:58:40;96463.06;;;10.29;100.00
6829;BME280;17930;48.592;8.868;2023-04-29T01:01:14;96475.66;;;10.22;100.00
6829;BME280;17930;48.592;8.868;2023-04-29T01:03:41;96468.38;;;10.20;100.00
6829;BME280;17930;48.592;8.868;2023-04-29T01:06:18;96463.97;;;10.20;100.00
6829;BME280;17930;48.592;8.868;2023-04-29T01:08:54;96458.47;;;10.45;100.00
6829;BME280;17930;48.592;8.868;2023-04-29T01:11:30;96455.88;;;10.45;100.00
6829;BME280;17930;48.592;8.868;2023-04-29T01:14:01;96456.78;;;10.35;100.00
6829;BME280;17930;48.592;8.868;2023-04-29T01:16:33;96464.16;;;10.28;100.00
6829;BME280;17930;48.592;8.868;2023-04-29T01:19:07;96460.53;;;10.24;100.00
6829;BME280;17930;48.592;8.868;2023-04-29T01:21:44;96463.91;;;10.25;100.00
6829;BME280;17930;48.592;8.868;2023-04-29T01:24:13;96460.84;;;10.18;100.00
6829;BME280;17930;48.592;8.868;2023-04-29T01:26:42;96461.19;;;10.12;100.00
6829;BME280;17930;48.592;8.868;2023-04-29T01:29:21;96460.19;;;10.08;100.00
6829;BME280;17930;48.592;8.868;2023-04-29T01:31:57;96455.53;;;10.05;100.00
6829;BME280;17930;48.592;8.868;2023-04-29T01:34:29;96466.56;;;9.92;100.00
6829;BME280;17930;48.592;8.868;2023-04-29T01:37:04;96470.75;;;9.88;100.00
6829;BME280;17930;48.592;8.868;2023-04-29T01:39:39;96460.34;;;9.88;100.00
6829;BME280;17930;48.592;8.868;2023-04-29T01:42:14;96459.78;;;9.91;100.00
6829;BME280;17930;48.592;8.868;2023-04-29T01:44:44;96456.69;;;9.89;100.00
6829;BME280;17930;48.592;8.868;2023-04-29T01:47:13;96455.69;;;9.85;100.00
6829;BME280;17930;48.592;8.868;2023-04-29T01:49:39;96451.41;;;9.94;100.00
6829;BME280;17930;48.592;8.868;2023-04-29T01:52:06;96455.63;;;9.90;100.00
6829;BME280;17930;48.592;8.868;2023-04-29T01:54:34;96454.72;;;10.04;100.00
6829;BME280;17930;48.592;8.868;2023-04-29T01:57:01;96461.34;;;9.92;100.00
6829;BME280;17930;48.592;8.868;2023-04-29T01:59:27;96461.09;;;9.88;100.00
6829;BME280;17930;48.592;8.868;2023-04-29T02:01:54;96455.88;;;9.88;100.00
6829;BME280;17930;48.592;8.868;2023-04-29T02:04:23;96453.91;;;9.80;100.00
6829;BME280;17930;48.592;8.868;2023-04-29T02:06:49;96463.94;;;9.92;100.00
6829;BME280;17930;48.592;8.868;2023-04-29T02:09:17;96460.28;;;9.93;100.00
6829;BME280;17930;48.592;8.868;2023-04-29T02:11:45;96458.00;;;9.86;100.00
6829;BME280;17930;48.592;8.868;2023-04-29T02:14:11;96459.31;;;9.84;100.00
6829;BME280;17930;48.592;8.868;2023-04-29T02:16:38;96461.97;;;9.79;100.00
6829;BME280;17930;48.592;8.868;2023-04-29T02:19:05;96458.63;;;9.73;100.00
6829;BME280;17930;48.592;8.868;2023-04-29T02:21:31;96457.06;;;9.72;100.00
6829;BME280;17930;48.592;8.868;2023-04-29T02:23:59;96457.91;;;9.63;100.00
6829;BME280;17930;48.592;8.868;2023-04-29T02:26:27;96456.38;;;9.62;100.00
6829;BME280;17930;48.592;8.868;2023-04-29T02:28:54;96461.59;;;9.62;100.00
6829;BME280;17930;48.592;8.868;2023-04-29T02:31:21;96459.94;;;9.71;100.00
6829;BME280;17930;48.592;8.868;2023-04-29T02:33:48;96466.00;;;9.62;100.00
6829;BME280;17930;48.592;8.868;2023-04-29T02:36:14;96461.88;;;9.56;100.00
6829;BME280;17930;48.592;8.868;2023-04-29T02:38:42;96461.19;;;9.45;100.00
6829;BME280;17930;48.592;8.868;2023-04-29T02:41:08;96463.28;;;9.43;100.00
6829;BME280;17930;48.592;8.868;2023-04-29T02:43:35;96458.13;;;9.33;100.00
6829;BME280;17930;48.592;8.868;2023-04-29T02:46:03;96461.53;;;9.34;100.00
6829;BME280;17930;48.592;8.868;2023-04-29T02:48:30;96458.13;;;9.38;100.00
6829;BME280;17930;48.592;8.868;2023-04-29T02:50:56;96453.72;;;9.34;100.00
6829;BME280;17930;48.592;8.868;2023-04-29T02:53:23;96461.19;;;9.45;100.00
6829;BME280;17930;48.592;8.868;2023-04-29T02:55:49;96460.19;;;9.41;100.00
6829;BME280;17930;48.592;8.868;2023-04-29T02:58:16;96464.38;;;9.37;100.00
6829;BME280;17930;48.592;8.868;2023-04-29T03:00:43;96463.06;;;9.35;100.00
6829;BME280;17930;48.592;8.868;2023-04-29T03:03:10;96461.56;;;9.29;100.00
6829;BME280;17930;48.592;8.868;2023-04-29T03:05:37;96464.97;;;9.24;100.00
6829;BME280;17930;48.592;8.868;2023-04-29T03:08:04;96475.16;;;9.21;100.00
6829;BME280;17930;48.592;8.868;2023-04-29T03:10:30;96477.00;;;9.16;100.00
6829;BME280;17930;48.592;8.868;2023-04-29T03:12:57;96470.22;;;9.19;100.00
6829;BME280;17930;48.592;8.868;2023-04-29T03:15:24;96469.47;;;9.14;100.00
6829;BME280;17930;48.592;8.868;2023-04-29T03:17:50;96474.72;;;9.04;100.00
6829;BME280;17930;48.592;8.868;2023-04-29T03:20:19;96464.09;;;8.96;100.00
6829;BME280;17930;48.592;8.868;2023-04-29T03:22:45;96467.25;;;8.88;100.00
6829;BME280;17930;48.592;8.868;2023-04-29T03:25:12;96468.59;;;8.80;100.00
6829;BME280;17930;48.592;8.868;2023-04-29T03:27:38;96458.75;;;9.20;100.00
6829;BME280;17930;48.592;8.868;2023-04-29T03:30:06;96452.03;;;9.15;100.00
6829;BME280;17930;48.592;8.868;2023-04-29T03:32:33;96446.31;;;9.13;100.00
6829;BME280;17930;48.592;8.868;2023-04-29T03:34:59;96450.50;;;9.09;100.00
6829;BME280;17930;48.592;8.868;2023-04-29T03:37:27;96445.19;;;9.28;100.00
6829;BME280;17930;48.592;8.868;2023-04-29T03:39:54;96446.75;;;9.29;100.00
6829;BME280;17930;48.592;8.868;2023-04-29T03:42:21;96452.91;;;9.00;100.00
6829;BME280;17930;48.592;8.868;2023-04-29T03:44:47;96450.13;;;8.82;100.00
6829;BME280;17930;48.592;8.868;2023-04-29T03:47:14;96454.81;;;8.80;100.00
6829;BME280;17930;48.592;8.868;2023-04-29T03:49:40;96452.19;;;8.85;100.00
6829;BME280;17930;48.592;8.868;2023-04-29T03:52:07;96456.09;;;8.82;100.00
6829;BME280;17930;48.592;8.868;2023-04-29T03:54:35;96457.66;;;8.83;100.00
6829;BME280;17930;48.592;8.868;2023-04-29T03:57:02;96454.78;;;8.85;100.00
6829;BME280;17930;48.592;8.868;2023-04-29T03:59:29;96457.16;;;8.76;100.00
6829;BME280;17930;48.592;8.868;2023-04-29T04:01:55;96455.38;;;8.72;100.00
6829;BME280;17930;48.592;8.868;2023-04-29T04:04:22;96456.44;;;8.66;100.00
6829;BME280;17930;48.592;8.868;2023-04-29T04:06:49;96458.56;;;8.54;100.00
6829;BME280;17930;48.592;8.868;2023-04-29T04:09:16;96456.22;;;8.58;100.00
6829;BME280;17930;48.592;8.868;2023-04-29T04:11:44;96453.34;;;8.54;100.00
6829;BME280;17930;48.592;8.868;2023-04-29T04:14:11;96454.91;;;8.55;100.00
6829;BME280;17930;48.592;8.868;2023-04-29T04:16:38;96453.84;;;8.61;100.00
6829;BME280;17930;48.592;8.868;2023-04-29T04:19:04;96460.91;;;8.51;100.00
6829;BME280;17930;48.592;8.868;2023-04-29T04:21:31;96461.72;;;8.46;100.00
6829;BME280;17930;48.592;8.868;2023-04-29T04:23:58;96465.88;;;8.37;100.00
6829;BME280;17930;48.592;8.868;2023-04-29T04:26:24;96465.41;;;8.25;100.00
6829;BME280;17930;48.592;8.868;2023-04-29T04:28:52;96465.94;;;8.17;100.00
6829;BME280;17930;48.592;8.868;2023-04-29T04:31:19;96476.59;;;8.16;100.00
6829;BME280;17930;48.592;8.868;2023-04-29T04:33:45;96474.53;;;8.18;100.00
6829;BME280;17930;48.592;8.868;2023-04-29T04:36:12;96473.97;;;8.11;100.00
6829;BME280;17930;48.592;8.868;2023-04-29T04:38:38;96483.09;;;8.14;100.00
6829;BME280;17930;48.592;8.868;2023-04-29T04:41:05;96488.28;;;8.14;100.00
6829;BME280;17930;48.592;8.868;2023-04-29T04:43:32;96501.25;;;8.18;100.00
6829;BME280;17930;48.592;8.868;2023-04-29T04:46:08;96498.16;;;8.26;100.00
6829;BME280;17930;48.592;8.868;2023-04-29T04:48:35;96510.06;;;8.27;100.00
6829;BME280;17930;48.592;8.868;2023-04-29T04:51:06;96510.84;;;8.38;100.00
6829;BME280;17930;48.592;8.868;2023-04-29T04:53:33;96514.72;;;8.40;100.00
6829;BME280;17930;48.592;8.868;2023-04-29T04:56:00;96511.56;;;8.58;100.00
6829;BME280;17930;48.592;8.868;2023-04-29T04:58:26;96502.16;;;8.72;100.00
6829;BME280;17930;48.592;8.868;2023-04-29T05:00:53;96498.19;;;8.89;100.00
6829;BME280;17930;48.592;8.868;2023-04-29T05:03:21;96501.06;;;8.93;100.00
6829;BME280;17930;48.592;8.868;2023-04-29T05:05:52;96496.53;;;9.13;100.00
6829;BME280;17930;48.592;8.868;2023-04-29T05:08:18;96504.03;;;9.19;100.00
6829;BME280;17930;48.592;8.868;2023-04-29T05:10:45;96511.19;;;9.42;100.00
6829;BME280;17930;48.592;8.868;2023-04-29T05:13:11;96512.72;;;9.48;100.00
6829;BME280;17930;48.592;8.868;2023-04-29T05:15:38;96518.88;;;9.62;100.00
6829;BME280;17930;48.592;8.868;2023-04-29T05:18:05;96517.03;;;10.01;100.00
6829;BME280;17930;48.592;8.868;2023-04-29T05:20:33;96511.44;;;10.45;100.00
6829;BME280;17930;48.592;8.868;2023-04-29T05:22:59;96514.78;;;10.69;100.00
6829;BME280;17930;48.592;8.868;2023-04-29T05:25:26;96516.16;;;10.67;100.00
6829;BME280;17930;48.592;8.868;2023-04-29T05:27:52;96523.34;;;10.74;100.00
6829;BME280;17930;48.592;8.868;2023-04-29T05:30:19;96526.53;;;10.95;100.00
6829;BME280;17930;48.592;8.868;2023-04-29T05:32:46;96534.28;;;11.00;100.00
6829;BME280;17930;48.592;8.868;2023-04-29T05:35:13;96535.94;;;11.32;100.00
6829;BME280;17930;48.592;8.868;2023-04-29T05:37:41;96539.69;;;11.68;100.00
6829;BME280;17930;48.592;8.868;2023-04-29T05:40:08;96537.41;;;11.80;100.00
6829;BME280;17930;48.592;8.868;2023-04-29T05:42:35;96540.13;;;12.07;100.00
6829;BME280;17930;48.592;8.868;2023-04-29T05:45:02;96548.41;;;12.14;100.00
6829;BME280;17930;48.592;8.868;2023-04-29T05:47:28;96545.31;;;12.25;100.00
6829;BME280;17930;48.592;8.868;2023-04-29T05:49:55;96558.34;;;12.43;100.00
6829;BME280;17930;48.592;8.868;2023-04-29T05:52:22;96562.03;;;12.42;100.00
6829;BME280;17930;48.592;8.868;2023-04-29T05:54:50;96557.03;;;12.59;100.00
6829;BME280;17930;48.592;8.868;2023-04-29T05:57:16;96563.72;;;12.65;100.00
6829;BME280;17930;48.592;8.868;2023-04-29T05:59:43;96567.31;;;12.69;100.00
6829;BME280;17930;48.592;8.868;2023-04-29T06:02:09;96569.59;;;12.89;100.00
6829;BME280;17930;48.592;8.868;2023-04-29T06:04:36;96577.72;;;12.42;100.00
6829;BME280;17930;48.592;8.868;2023-04-29T06:07:05;96575.63;;;12.58;100.00
6829;BME280;17930;48.592;8.868;2023-04-29T06:09:33;96577.78;;;12.69;100.00
6829;BME280;17930;48.592;8.868;2023-04-29T06:12:01;96571.78;;;12.82;100.00
6829;BME280;17930;48.592;8.868;2023-04-29T06:14:28;96571.44;;;13.02;100.00
6829;BME280;17930;48.592;8.868;2023-04-29T06:16:55;96568.34;;;13.27;100.00
6829;BME280;17930;48.592;8.868;2023-04-29T06:19:21;96563.53;;;13.55;100.00
6829;BME280;17930;48.592;8.868;2023-04-29T06:21:49;96569.84;;;13.68;100.00
6829;BME280;17930;48.592;8.868;2023-04-29T06:24:15;96570.75;;;13.85;100.00
6829;BME280;17930;48.592;8.868;2023-04-29T06:26:42;96569.94;;;13.98;100.00
6829;BME280;17930;48.592;8.868;2023-04-29T06:29:10;96581.38;;;14.02;100.00
6829;BME280;17930;48.592;8.868;2023-04-29T06:31:37;96589.72;;;14.04;100.00
6829;BME280;17930;48.592;8.868;2023-04-29T06:34:03;96586.31;;;14.38;100.00
6829;BME280;17930;48.592;8.868;2023-04-29T06:36:30;96596.06;;;14.68;100.00
6829;BME280;17930;48.592;8.868;2023-04-29T06:38:57;96600.00;;;14.57;100.00
6829;BME280;17930;48.592;8.868;2023-04-29T06:41:24;96603.00;;;15.25;100.00
6829;BME280;17930;48.592;8.868;2023-04-29T06:43:51;96612.78;;;15.33;100.00
6829;BME280;17930;48.592;8.868;2023-04-29T06:46:19;96616.88;;;15.55;100.00
6829;BME280;17930;48.592;8.868;2023-04-29T06:48:46;96626.38;;;15.90;100.00
6829;BME280;17930;48.592;8.868;2023-04-29T06:51:13;96635.53;;;16.85;100.00
6829;BME280;17930;48.592;8.868;2023-04-29T06:53:39;96638.66;;;16.37;100.00
6829;BME280;17930;48.592;8.868;2023-04-29T06:56:06;96648.56;;;16.40;100.00
6829;BME280;17930;48.592;8.868;2023-04-29T06:58:33;96643.28;;;16.82;100.00
6829;BME280;17930;48.592;8.868;2023-04-29T07:01:00;96638.16;;;16.85;100.00
6829;BME280;17930;48.592;8.868;2023-04-29T07:03:29;96653.06;;;16.64;100.00
6829;BME280;17930;48.592;8.868;2023-04-29T07:05:55;96656.13;;;16.92;100.00
6829;BME280;17930;48.592;8.868;2023-04-29T07:08:22;96663.41;;;16.86;100.00
6829;BME280;17930;48.592;8.868;2023-04-29T07:10:55;96662.31;;;17.49;100.00
6829;BME280;17930;48.592;8.868;2023-04-29T07:13:24;96653.59;;;18.55;100.00
6829;BME280;17930;48.592;8.868;2023-04-29T07:15:51;96655.56;;;19.11;100.00
6829;BME280;17930;48.592;8.868;2023-04-29T07:18:18;96662.72;;;17.97;100.00
6829;BME280;17930;48.592;8.868;2023-04-29T07:20:46;96665.34;;;17.14;100.00
6829;BME280;17930;48.592;8.868;2023-04-29T07:23:14;96673.09;;;17.36;100.00
6829;BME280;17930;48.592;8.868;2023-04-29T07:25:40;96673.47;;;18.21;100.00
6829;BME280;17930;48.592;8.868;2023-04-29T07:28:07;96676.69;;;18.99;100.00
6829;BME280;17930;48.592;8.868;2023-04-29T07:30:34;96678.78;;;18.73;100.00
6829;BME280;17930;48.592;8.868;2023-04-29T07:33:00;96668.47;;;20.04;100.00
6829;BME280;17930;48.592;8.868;2023-04-29T07:35:28;96663.44;;;20.38;100.00
6829;BME280;17930;48.592;8.868;2023-04-29T07:37:57;96655.94;;;20.67;100.00
6829;BME280;17930;48.592;8.868;2023-04-29T07:40:24;96665.03;;;20.15;100.00
6829;BME280;17930;48.592;8.868;2023-04-29T07:42:50;96673.03;;;18.71;100.00
6829;BME280;17930;48.592;8.868;2023-04-29T07:45:17;96668.41;;;18.68;100.00
6829;BME280;17930;48.592;8.868;2023-04-29T07:47:44;96670.44;;;19.59;100.00
6829;BME280;17930;48.592;8.868;2023-04-29T07:50:11;96671.72;;;20.37;100.00
6829;BME280;17930;48.592;8.868;2023-04-29T07:52:38;96668.38;;;20.52;100.00
6829;BME280;17930;48.592;8.868;2023-04-29T07:55:07;96674.19;;;22.00;100.00
6829;BME280;17930;48.592;8.868;2023-04-29T07:57:34;96675.22;;;21.34;100.00
6829;BME280;17930;48.592;8.868;2023-04-29T08:00:01;96669.75;;;21.00;100.00
6829;BME280;17930;48.592;8.868;2023-04-29T08:02:27;96669.69;;;20.69;100.00
6829;BME280;17930;48.592;8.868;2023-04-29T08:04:54;96672.75;;;20.71;100.00
6829;BME280;17930;48.592;8.868;2023-04-29T08:07:21;96675.03;;;21.27;100.00
6829;BME280;17930;48.592;8.868;2023-04-29T08:09:47;96679.34;;;21.78;100.00
6829;BME280;17930;48.592;8.868;2023-04-29T08:12:15;96677.81;;;21.04;100.00
6829;BME280;17930;48.592;8.868;2023-04-29T08:14:42;96677.63;;;22.01;100.00
6829;BME280;17930;48.592;8.868;2023-04-29T08:17:08;96672.72;;;22.90;100.00
6829;BME280;17930;48.592;8.868;2023-04-29T08:19:35;96664.50;;;23.17;96.22
6829;BME280;17930;48.592;8.868;2023-04-29T08:22:02;96681.63;;;22.97;100.00
6829;BME280;17930;48.592;8.868;2023-04-29T08:24:29;96687.59;;;21.73;100.00
6829;BME280;17930;48.592;8.868;2023-04-29T08:26:57;96677.81;;;22.42;100.00
6829;BME280;17930;48.592;8.868;2023-04-29T08:29:25;96687.91;;;22.02;100.00
6829;BME280;17930;48.592;8.868;2023-04-29T08:31:52;96676.69;;;20.77;100.00
6829;BME280;17930;48.592;8.868;2023-04-29T08:34:19;96683.84;;;21.16;100.00
6829;BME280;17930;48.592;8.868;2023-04-29T08:36:45;96676.03;;;20.29;100.00
6829;BME280;17930;48.592;8.868;2023-04-29T08:39:12;96678.97;;;20.52;100.00
6829;BME280;17930;48.592;8.868;2023-04-29T08:41:38;96684.19;;;20.36;100.00
6829;BME280;17930;48.592;8.868;2023-04-29T08:44:06;96698.84;;;19.39;100.00
6829;BME280;17930;48.592;8.868;2023-04-29T08:46:34;96689.53;;;19.09;100.00
6829;BME280;17930;48.592;8.868;2023-04-29T08:49:02;96694.91;;;19.80;100.00
6829;BME280;17930;48.592;8.868;2023-04-29T08:51:29;96684.78;;;20.18;100.00
6829;BME280;17930;48.592;8.868;2023-04-29T08:53:56;96680.25;;;21.24;100.00
6829;BME280;17930;48.592;8.868;2023-04-29T08:56:23;96669.56;;;22.84;100.00
6829;BME280;17930;48.592;8.868;2023-04-29T08:58:52;96678.38;;;22.16;99.24
6829;BME280;17930;48.592;8.868;2023-04-29T09:01:20;96676.13;;;22.34;100.00
6829;BME280;17930;48.592;8.868;2023-04-29T09:03:53;96672.88;;;23.38;98.18
6829;BME280;17930;48.592;8.868;2023-04-29T09:06:22;96684.94;;;21.73;98.86
6829;BME280;17930;48.592;8.868;2023-04-29T09:08:49;96685.44;;;19.44;100.00
6829;BME280;17930;48.592;8.868;2023-04-29T09:11:16;96682.69;;;20.74;100.00
6829;BME280;17930;48.592;8.868;2023-04-29T09:13:43;96679.25;;;22.05;100.00
6829;BME280;17930;48.592;8.868;2023-04-29T09:16:10;96678.75;;;21.54;100.00
6829;BME280;17930;48.592;8.868;2023-04-29T09:18:41;96688.81;;;20.90;100.00
6829;BME280;17930;48.592;8.868;2023-04-29T09:21:17;96695.34;;;19.70;100.00
6829;BME280;17930;48.592;8.868;2023-04-29T09:23:45;96692.81;;;19.06;100.00
6829;BME280;17930;48.592;8.868;2023-04-29T09:26:11;96698.00;;;18.82;100.00
6829;BME280;17930;48.592;8.868;2023-04-29T09:28:38;96706.09;;;18.16;100.00
6829;BME280;17930;48.592;8.868;2023-04-29T09:31:08;96699.75;;;18.58;100.00
6829;BME280;17930;48.592;8.868;2023-04-29T09:33:51;96698.25;;;18.89;100.00
6829;BME280;17930;48.592;8.868;2023-04-29T09:36:37;96694.53;;;19.90;100.00
6829;BME280;17930;48.592;8.868;2023-04-29T09:39:05;96688.69;;;22.03;100.00
6829;BME280;17930;48.592;8.868;2023-04-29T09:41:38;96685.44;;;24.04;100.00
6829;BME280;17930;48.592;8.868;2023-04-29T09:44:05;96672.91;;;24.60;87.54
6829;BME280;17930;48.592;8.868;2023-04-29T09:46:32;96674.84;;;23.41;85.13
6829;BME280;17930;48.592;8.868;2023-04-29T09:49:01;96679.44;;;22.84;92.63
6829;BME280;17930;48.592;8.868;2023-04-29T09:51:29;96689.03;;;20.58;100.00
6829;BME280;17930;48.592;8.868;2023-04-29T09:53:58;96693.28;;;20.74;100.00
6829;BME280;17930;48.592;8.868;2023-04-29T09:56:25;96699.38;;;20.00;100.00
6829;BME280;17930;48.592;8.868;2023-04-29T09:58:53;96691.84;;;20.77;100.00
6829;BME280;17930;48.592;8.868;2023-04-29T10:01:22;96680.22;;;22.84;100.00
6829;BME280;17930;48.592;8.868;2023-04-29T10:03:51;96682.09;;;23.21;87.40
6829;BME280;17930;48.592;8.868;2023-04-29T10:06:20;96698.72;;;20.93;97.31
6829;BME280;17930;48.592;8.868;2023-04-29T10:08:48;96701.53;;;19.74;100.00
6829;BME280;17930;48.592;8.868;2023-04-29T10:11:16;96707.25;;;19.64;100.00
6829;BME280;17930;48.592;8.868;2023-04-29T10:13:43;96701.25;;;19.20;100.00
6829;BME280;17930;48.592;8.868;2023-04-29T10:16:16;96703.66;;;20.16;100.00
6829;BME280;17930;48.592;8.868;2023-04-29T10:18:49;96694.28;;;21.40;100.00
6829;BME280;17930;48.592;8.868;2023-04-29T10:21:20;96706.03;;;20.96;100.00
6829;BME280;17930;48.592;8.868;2023-04-29T10:23:47;96705.31;;;20.21;100.00
6829;BME280;17930;48.592;8.868;2023-04-29T10:26:17;96698.63;;;20.62;100.00
6829;BME280;17930;48.592;8.868;2023-04-29T10:28:47;96688.38;;;22.38;100.00
6829;BME280;17930;48.592;8.868;2023-04-29T10:31:18;96679.88;;;24.42;83.27
6829;BME280;17930;48.592;8.868;2023-04-29T10:33:46;96676.59;;;24.26;77.96
6829;BME280;17930;48.592;8.868;2023-04-29T10:36:14;96695.72;;;21.49;94.10
6829;BME280;17930;48.592;8.868;2023-04-29T10:38:43;96697.25;;;19.70;100.00
6829;BME280;17930;48.592;8.868;2023-04-29T10:41:15;96701.69;;;19.22;100.00
6829;BME280;17930;48.592;8.868;2023-04-29T10:43:46;96690.03;;;20.42;100.00
6829;BME280;17930;48.592;8.868;2023-04-29T10:46:17;96683.72;;;21.70;100.00
6829;BME280;17930;48.592;8.868;2023-04-29T10:48:44;96678.81;;;22.90;95.14
6829;BME280;17930;48.592;8.868;2023-04-29T10:51:11;96678.81;;;24.46;80.39
6829;BME280;17930;48.592;8.868;2023-04-29T10:54:00;96659.25;;;26.23;73.05
6829;BME280;17930;48.592;8.868;2023-04-29T10:56:35;96666.59;;;24.20;72.80
6829;BME280;17930;48.592;8.868;2023-04-29T10:59:03;96671.78;;;23.20;79.79
6829;BME280;17930;48.592;8.868;2023-04-29T11:01:41;96683.81;;;21.74;85.93
6829;BME280;17930;48.592;8.868;2023-04-29T11:04:08;96671.41;;;22.62;87.07
6829;BME280;17930;48.592;8.868;2023-04-29T11:06:40;96668.03;;;23.02;84.98
6829;BME280;17930;48.592;8.868;2023-04-29T11:09:09;96668.72;;;24.07;78.95
6829;BME280;17930;48.592;8.868;2023-04-29T11:11:40;96660.50;;;24.77;82.58
6829;BME280;17930;48.592;8.868;2023-04-29T11:14:09;96657.31;;;26.24;73.22
6829;BME280;17930;48.592;8.868;2023-04-29T11:16:37;96664.50;;;26.09;72.83
6829;BME280;17930;48.592;8.868;2023-04-29T11:19:04;96666.44;;;24.09;73.68
6829;BME280;17930;48.592;8.868;2023-04-29T11:21:33;96668.69;;;22.43;87.15
6829;BME280;17930;48.592;8.868;2023-04-29T11:24:00;96674.06;;;21.20;96.02
6829;BME280;17930;48.592;8.868;2023-04-29T11:26:27;96673.25;;;20.50;100.00
6829;BME280;17930;48.592;8.868;2023-04-29T11:28:55;96678.16;;;21.02;100.00
6829;BME280;17930;48.592;8.868;2023-04-29T11:31:26;96673.44;;;21.54;100.00
6829;BME280;17930;48.592;8.868;2023-04-29T11:33:55;96681.41;;;21.54;100.00
6829;BME280;17930;48.592;8.868;2023-04-29T11:36:22;96677.13;;;22.45;100.00
6829;BME280;17930;48.592;8.868;2023-04-29T11:38:50;96666.91;;;21.82;91.68
6829;BME280;17930;48.592;8.868;2023-04-29T11:41:16;96686.03;;;21.14;97.17
6829;BME280;17930;48.592;8.868;2023-04-29T11:43:45;96687.69;;;19.89;100.00
6829;BME280;17930;48.592;8.868;2023-04-29T11:46:12;96678.53;;;21.16;100.00
6829;BME280;17930;48.592;8.868;2023-04-29T11:48:46;96673.38;;;23.66;88.20
6829;BME280;17930;48.592;8.868;2023-04-29T11:51:14;96681.63;;;24.05;80.87
6829;BME280;17930;48.592;8.868;2023-04-29T11:53:41;96673.34;;;23.21;87.50
6829;BME280;17930;48.592;8.868;2023-04-29T11:56:08;96676.59;;;24.26;86.21
6829;BME280;17930;48.592;8.868;2023-04-29T11:58:35;96679.66;;;24.02;81.90
6829;BME280;17930;48.592;8.868;2023-04-29T12:01:03;96684.81;;;22.50;85.73
6829;BME280;17930;48.592;8.868;2023-04-29T12:03:31;96680.34;;;23.96;77.72
6829;BME280;17930;48.592;8.868;2023-04-29T12:06:01;96679.66;;;23.13;79.32
6829;BME280;17930;48.592;8.868;2023-04-29T12:08:28;96682.34;;;23.35;85.27
6829;BME280;17930;48.592;8.868;2023-04-29T12:10:56;96667.91;;;25.20;78.42
6829;BME280;17930;48.592;8.868;2023-04-29T12:13:24;96676.38;;;26.15;70.47
6829;BME280;17930;48.592;8.868;2023-04-29T12:15:51;96673.63;;;25.58;69.67
6829;BME280;17930;48.592;8.868;2023-04-29T12:18:19;96674.72;;;24.52;74.37
6829;BME280;17930;48.592;8.868;2023-04-29T12:20:48;96684.78;;;24.66;72.80
6829;BME280;17930;48.592;8.868;2023-04-29T12:23:18;96670.53;;;25.17;67.59
6829;BME280;17930;48.592;8.868;2023-04-29T12:25:48;96672.00;;;24.81;69.73
6829;BME280;17930;48.592;8.868;2023-04-29T12:28:16;96663.34;;;26.07;69.37
6829;BME280;17930;48.592;8.868;2023-04-29T12:30:43;96667.81;;;25.92;64.18
6829;BME280;17930;48.592;8.868;2023-04-29T12:33:15;96660.19;;;26.55;64.67
6829;BME280;17930;48.592;8.868;2023-04-29T12:35:43;96656.13;;;26.82;63.30
6829;BME280;17930;48.592;8.868;2023-04-29T12:38:10;96667.19;;;26.13;65.05
6829;BME280;17930;48.592;8.868;2023-04-29T12:40:40;96670.06;;;25.08;66.08
6829;BME280;17930;48.592;8.868;2023-04-29T12:43:07;96678.25;;;25.25;66.56
6829;BME280;17930;48.592;8.868;2023-04-29T12:45:33;96667.56;;;24.34;65.35
6829;BME280;17930;48.592;8.868;2023-04-29T12:48:01;96673.78;;;24.41;68.32
6829;BME280;17930;48.592;8.868;2023-04-29T12:50:34;96678.81;;;24.46;66.61
6829;BME280;17930;48.592;8.868;2023-04-29T12:53:02;96672.53;;;25.27;65.12
6829;BME280;17930;48.592;8.868;2023-04-29T12:55:31;96682.16;;;24.14;65.46
6829;BME280;17930;48.592;8.868;2023-04-29T12:58:01;96679.34;;;24.59;64.93
6829;BME280;17930;48.592;8.868;2023-04-29T13:00:27;96676.25;;;25.55;64.35
6829;BME280;17930;48.592;8.868;2023-04-29T13:02:54;96688.28;;;25.75;63.91
6829;BME280;17930;48.592;8.868;2023-04-29T13:05:21;96686.78;;;26.27;60.50
6829;BME280;17930;48.592;8.868;2023-04-29T13:07:48;96688.84;;;26.51;60.46
6829;BME280;17930;48.592;8.868;2023-04-29T13:10:15;96685.69;;;24.76;61.92